createdAt,value
2019-01-18T00:00:49.112Z,1014.92
2019-01-18T00:01:49.170Z,1014.92
2019-01-18T00:02:49.428Z,1014.93
2019-01-18T00:03:49.450Z,1014.93
2019-01-18T00:04:49.762Z,1014.93
2019-01-18T00:05:49.102Z,1014.94
2019-01-18T00:06:49.113Z,1014.95
2019-01-18T00:08:02.320Z,1014.98
2019-01-18T00:08:49.069Z,1015
2019-01-18T00:09:49.153Z,1015.02
2019-01-18T00:10:49.220Z,1015.03
2019-01-18T00:11:49.284Z,1015.03
2019-01-18T00:12:49.175Z,1015.07
2019-01-18T00:13:49.118Z,1015.05
2019-01-18T00:14:49.407Z,1015.04
2019-01-18T00:15:49.148Z,1015.1
2019-01-18T00:16:49.321Z,1015.1
2019-01-18T00:17:49.224Z,1015.11
2019-01-18T00:18:49.097Z,1015.11
2019-01-18T00:19:48.888Z,1015.07
2019-01-18T00:20:49.105Z,1015.11
2019-01-18T00:21:49.153Z,1015.14
2019-01-18T00:22:49.465Z,1015.19
2019-01-18T00:23:49.864Z,1015.2
2019-01-18T00:24:49.498Z,1015.17
2019-01-18T00:25:49.074Z,1015.21
2019-01-18T00:26:49.233Z,1015.19
2019-01-18T00:27:49.093Z,1015.24
2019-01-18T00:28:49.288Z,1015.2
2019-01-18T00:29:49.091Z,1015.21
2019-01-18T00:30:49.062Z,1015.23
2019-01-18T00:31:49.160Z,1015.21
2019-01-18T00:32:49.095Z,1015.23
2019-01-18T00:33:49.113Z,1015.21
2019-01-18T00:34:56.013Z,1015.23
2019-01-18T00:35:49.100Z,1015.25
2019-01-18T00:37:06.883Z,1015.27
2019-01-18T00:37:49.023Z,1015.29
2019-01-18T00:38:49.107Z,1015.28
2019-01-18T00:39:49.347Z,1015.34
2019-01-18T00:40:49.106Z,1015.3
2019-01-18T00:41:49.329Z,1015.29
2019-01-18T00:42:49.049Z,1015.27
2019-01-18T00:43:49.089Z,1015.26
2019-01-18T00:44:49.051Z,1015.33
2019-01-18T00:45:49.106Z,1015.28
2019-01-18T00:46:48.978Z,1015.31
2019-01-18T00:47:49.016Z,1015.33
2019-01-18T00:48:49.098Z,1015.35
2019-01-18T00:49:49.091Z,1015.36
2019-01-18T00:50:49.449Z,1015.35
2019-01-18T00:51:49.126Z,1015.32
2019-01-18T00:52:49.044Z,1015.35
2019-01-18T00:53:49.805Z,1015.36
2019-01-18T00:54:49.365Z,1015.41
2019-01-18T00:55:50.624Z,1015.41
2019-01-18T00:56:49.109Z,1015.41
2019-01-18T00:57:49.063Z,1015.37
2019-01-18T00:58:49.017Z,1015.42
2019-01-18T00:59:49.310Z,1015.45
2019-01-18T01:00:49.212Z,1015.47
2019-01-18T01:01:49.028Z,1015.48
2019-01-18T01:02:49.444Z,1015.51
2019-01-18T01:03:50.587Z,1015.49
2019-01-18T01:04:49.357Z,1015.47
2019-01-18T01:05:49.351Z,1015.54
2019-01-18T01:06:49.148Z,1015.57
2019-01-18T01:07:49.697Z,1015.61
2019-01-18T01:08:49.015Z,1015.59
2019-01-18T01:09:50.602Z,1015.56
2019-01-18T01:10:49.564Z,1015.55
2019-01-18T01:11:49.701Z,1015.57
2019-01-18T01:12:49.043Z,1015.64
2019-01-18T01:13:49.200Z,1015.67
2019-01-18T01:14:48.962Z,1015.71
2019-01-18T01:15:49.025Z,1015.7
2019-01-18T01:16:49.113Z,1015.72
2019-01-18T01:17:49.057Z,1015.73
2019-01-18T01:18:49.077Z,1015.75
2019-01-18T01:19:49.044Z,1015.76
2019-01-18T01:20:49.071Z,1015.81
2019-01-18T01:21:49.277Z,1015.82
2019-01-18T01:22:49.150Z,1015.84
2019-01-18T01:23:49.271Z,1015.84
2019-01-18T01:24:49.386Z,1015.89
2019-01-18T01:25:49.060Z,1015.88
2019-01-18T01:26:49.047Z,1015.85
2019-01-18T01:27:48.976Z,1015.88
2019-01-18T01:28:49.102Z,1015.86
2019-01-18T01:29:49.311Z,1015.9
2019-01-18T01:30:49.132Z,1015.92
2019-01-18T01:31:49.005Z,1015.95
2019-01-18T01:32:49.036Z,1015.94
2019-01-18T01:33:49.256Z,1015.99
2019-01-18T01:34:48.975Z,1016.01
2019-01-18T01:35:49.046Z,1016.02
2019-01-18T01:36:49.387Z,1016.09
2019-01-18T01:37:49.120Z,1016.06
2019-01-18T01:38:49.171Z,1016.1
2019-01-18T01:39:49.208Z,1016.13
2019-01-18T01:40:48.778Z,1016.16
2019-01-18T01:41:49.019Z,1016.1
2019-01-18T01:42:49.033Z,1016.13
2019-01-18T01:44:10.021Z,1016.11
2019-01-18T01:44:49.099Z,1016.18
2019-01-18T01:45:49.074Z,1016.17
2019-01-18T01:46:49.339Z,1016.21
2019-01-18T01:47:49.154Z,1016.28
2019-01-18T01:48:49.044Z,1016.25
2019-01-18T01:49:49.048Z,1016.27
2019-01-18T01:50:49.213Z,1016.27
2019-01-18T01:51:49.043Z,1016.28
2019-01-18T01:52:49.171Z,1016.31
2019-01-18T01:53:49.197Z,1016.35
2019-01-18T01:54:49.057Z,1016.33
2019-01-18T01:55:49.192Z,1016.39
2019-01-18T01:56:49.037Z,1016.4
2019-01-18T01:58:49.116Z,1016.37
2019-01-18T01:59:50.171Z,1016.38
2019-01-18T02:00:48.975Z,1016.39
2019-01-18T02:01:49.258Z,1016.39
2019-01-18T02:02:48.953Z,1016.42
2019-01-18T02:03:49.257Z,1016.49
2019-01-18T02:04:50.767Z,1016.5
2019-01-18T02:05:49.297Z,1016.46
2019-01-18T02:06:55.487Z,1016.47
2019-01-18T02:07:49.482Z,1016.42
2019-01-18T02:08:48.956Z,1016.47
2019-01-18T02:09:48.979Z,1016.51
2019-01-18T02:10:48.972Z,1016.53
2019-01-18T02:11:49.030Z,1016.55
2019-01-18T02:12:48.959Z,1016.56
2019-01-18T02:13:49.223Z,1016.6
2019-01-18T02:14:48.998Z,1016.6
2019-01-18T02:15:48.924Z,1016.66
2019-01-18T02:16:49.062Z,1016.64
2019-01-18T02:17:49.079Z,1016.66
2019-01-18T02:18:48.952Z,1016.69
2019-01-18T02:19:49.327Z,1016.7
2019-01-18T02:20:48.960Z,1016.68
2019-01-18T02:21:48.896Z,1016.7
2019-01-18T02:22:49.215Z,1016.73
2019-01-18T02:23:49.061Z,1016.7
2019-01-18T02:24:48.441Z,1016.77
2019-01-18T02:25:49.508Z,1016.76
2019-01-18T02:26:49.289Z,1016.77
2019-01-18T02:27:48.903Z,1016.77
2019-01-18T02:28:49.003Z,1016.81
2019-01-18T02:29:48.840Z,1016.8
2019-01-18T02:30:48.982Z,1016.84
2019-01-18T02:31:48.983Z,1016.8
2019-01-18T02:32:48.999Z,1016.79
2019-01-18T02:33:49.159Z,1016.81
2019-01-18T02:34:48.943Z,1016.82
2019-01-18T02:35:48.952Z,1016.79
2019-01-18T02:36:48.848Z,1016.79
2019-01-18T02:37:49.344Z,1016.8
2019-01-18T02:38:48.988Z,1016.85
2019-01-18T02:39:49.114Z,1016.81
2019-01-18T02:40:48.959Z,1016.8
2019-01-18T02:41:48.936Z,1016.79
2019-01-18T02:42:49.116Z,1016.82
2019-01-18T02:43:49.030Z,1016.79
2019-01-18T02:44:49.679Z,1016.82
2019-01-18T02:45:55.759Z,1016.8
2019-01-18T02:46:50.731Z,1016.8
2019-01-18T02:47:49.055Z,1016.84
2019-01-18T02:48:48.955Z,1016.82
2019-01-18T02:49:49.079Z,1016.82
2019-01-18T02:50:49.102Z,1016.78
2019-01-18T02:51:49.187Z,1016.77
2019-01-18T02:52:48.938Z,1016.82
2019-01-18T02:53:48.975Z,1016.79
2019-01-18T02:54:48.830Z,1016.82
2019-01-18T02:55:48.974Z,1016.85
2019-01-18T02:56:48.969Z,1016.85
2019-01-18T02:57:48.841Z,1016.87
2019-01-18T02:58:48.888Z,1016.88
2019-01-18T02:59:49.293Z,1016.87
2019-01-18T03:00:48.939Z,1016.91
2019-01-18T03:02:49.212Z,1016.87
2019-01-18T03:03:48.834Z,1016.89
2019-01-18T03:04:48.852Z,1016.92
2019-01-18T03:05:49.183Z,1016.91
2019-01-18T03:06:49.393Z,1016.97
2019-01-18T03:07:48.838Z,1016.94
2019-01-18T03:08:48.803Z,1016.95
2019-01-18T03:09:49.003Z,1016.96
2019-01-18T03:10:48.813Z,1016.98
2019-01-18T03:11:49.245Z,1016.95
2019-01-18T03:12:49.192Z,1017.04
2019-01-18T03:13:48.790Z,1017.06
2019-01-18T03:14:48.992Z,1017
2019-01-18T03:15:48.953Z,1017.04
2019-01-18T03:16:48.801Z,1017.02
2019-01-18T03:17:49.296Z,1017.02
2019-01-18T03:18:48.767Z,1017.05
2019-01-18T03:19:49.177Z,1017.1
2019-01-18T03:20:50.663Z,1017.11
2019-01-18T03:21:48.782Z,1017.11
2019-01-18T03:22:49.055Z,1017.09
2019-01-18T03:23:49.092Z,1017.06
2019-01-18T03:24:48.807Z,1017.08
2019-01-18T03:25:48.772Z,1017.08
2019-01-18T03:26:49.232Z,1017.1
2019-01-18T03:27:49.085Z,1017.1
2019-01-18T03:28:48.990Z,1017.12
2019-01-18T03:29:48.788Z,1017.13
2019-01-18T03:30:48.780Z,1017.12
2019-01-18T03:31:49.079Z,1017.16
2019-01-18T03:32:48.926Z,1017.13
2019-01-18T03:33:48.774Z,1017.21
2019-01-18T03:34:49.190Z,1017.17
2019-01-18T03:35:48.778Z,1017.21
2019-01-18T03:36:49.023Z,1017.23
2019-01-18T03:37:49.026Z,1017.24
2019-01-18T03:38:50.346Z,1017.25
2019-01-18T03:39:48.758Z,1017.23
2019-01-18T03:40:55.707Z,1017.28
2019-01-18T03:41:49.029Z,1017.29
2019-01-18T03:42:49.069Z,1017.34
2019-01-18T03:43:48.905Z,1017.38
2019-01-18T03:44:48.800Z,1017.38
2019-01-18T03:45:48.952Z,1017.38
2019-01-18T03:46:49.106Z,1017.4
2019-01-18T03:47:48.740Z,1017.45
2019-01-18T03:48:48.899Z,1017.43
2019-01-18T03:49:48.909Z,1017.43
2019-01-18T03:50:48.793Z,1017.44
2019-01-18T03:52:48.782Z,1017.45
2019-01-18T03:53:49.087Z,1017.46
2019-01-18T03:54:48.742Z,1017.45
2019-01-18T03:55:48.747Z,1017.48
2019-01-18T03:56:49.039Z,1017.5
2019-01-18T03:57:49.034Z,1017.5
2019-01-18T03:58:48.758Z,1017.48
2019-01-18T03:59:49.258Z,1017.51
2019-01-18T04:00:49.087Z,1017.51
2019-01-18T04:01:48.741Z,1017.49
2019-01-18T04:02:48.820Z,1017.45
2019-01-18T04:03:48.732Z,1017.48
2019-01-18T04:04:48.765Z,1017.44
2019-01-18T04:05:48.999Z,1017.48
2019-01-18T04:06:48.828Z,1017.5
2019-01-18T04:07:48.707Z,1017.47
2019-01-18T04:08:48.799Z,1017.43
2019-01-18T04:09:48.735Z,1017.41
2019-01-18T04:10:48.789Z,1017.43
2019-01-18T04:11:48.910Z,1017.46
2019-01-18T04:12:48.945Z,1017.5
2019-01-18T04:13:48.734Z,1017.55
2019-01-18T04:14:48.725Z,1017.56
2019-01-18T04:15:48.768Z,1017.56
2019-01-18T04:16:48.723Z,1017.57
2019-01-18T04:17:48.723Z,1017.61
2019-01-18T04:18:48.939Z,1017.61
2019-01-18T04:20:49.565Z,1017.61
2019-01-18T04:21:49.115Z,1017.68
2019-01-18T04:22:48.786Z,1017.67
2019-01-18T04:23:49.133Z,1017.68
2019-01-18T04:24:49.546Z,1017.71
2019-01-18T04:25:48.803Z,1017.71
2019-01-18T04:26:48.694Z,1017.74
2019-01-18T04:27:48.818Z,1017.75
2019-01-18T04:28:48.779Z,1017.77
2019-01-18T04:29:49.072Z,1017.79
2019-01-18T04:30:48.804Z,1017.78
2019-01-18T04:31:49.089Z,1017.82
2019-01-18T04:32:48.935Z,1017.78
2019-01-18T04:33:49.201Z,1017.82
2019-01-18T04:34:49.155Z,1017.83
2019-01-18T04:35:49.208Z,1017.85
2019-01-18T04:36:49.495Z,1017.87
2019-01-18T04:37:48.698Z,1017.88
2019-01-18T04:38:49.627Z,1017.89
2019-01-18T04:39:48.802Z,1017.87
2019-01-18T04:40:52.657Z,1017.91
2019-01-18T04:41:48.760Z,1017.9
2019-01-18T04:42:48.853Z,1017.94
2019-01-18T04:43:49.169Z,1017.96
2019-01-18T04:44:48.993Z,1017.98
2019-01-18T04:45:48.994Z,1017.98
2019-01-18T04:46:48.990Z,1018.01
2019-01-18T04:47:49.120Z,1018.03
2019-01-18T04:48:48.756Z,1018.02
2019-01-18T04:49:50.103Z,1018.06
2019-01-18T04:50:48.876Z,1018.05
2019-01-18T04:51:48.920Z,1018.06
2019-01-18T04:52:48.669Z,1018.11
2019-01-18T04:53:50.122Z,1018.09
2019-01-18T04:54:48.626Z,1018.09
2019-01-18T04:55:48.687Z,1018.13
2019-01-18T04:56:48.896Z,1018.13
2019-01-18T04:57:49.675Z,1018.11
2019-01-18T04:58:49.065Z,1018.17
2019-01-18T04:59:49.406Z,1018.17
2019-01-18T05:00:48.670Z,1018.16
2019-01-18T05:01:56.695Z,1018.2
2019-01-18T05:02:49.102Z,1018.2
2019-01-18T05:03:49.413Z,1018.23
2019-01-18T05:04:49.009Z,1018.25
2019-01-18T05:05:49.843Z,1018.28
2019-01-18T05:06:48.770Z,1018.33
2019-01-18T05:07:48.798Z,1018.32
2019-01-18T05:08:48.829Z,1018.31
2019-01-18T05:09:48.899Z,1018.38
2019-01-18T05:10:48.692Z,1018.42
2019-01-18T05:11:48.620Z,1018.41
2019-01-18T05:12:48.617Z,1018.43
2019-01-18T05:13:48.795Z,1018.45
2019-01-18T05:14:48.728Z,1018.47
2019-01-18T05:15:48.715Z,1018.48
2019-01-18T05:16:48.669Z,1018.49
2019-01-18T05:17:48.641Z,1018.51
2019-01-18T05:18:49.108Z,1018.48
2019-01-18T05:19:48.783Z,1018.48
2019-01-18T05:20:49.053Z,1018.47
2019-01-18T05:21:48.397Z,1018.52
2019-01-18T05:22:48.701Z,1018.54
2019-01-18T05:23:49.272Z,1018.54
2019-01-18T05:24:54.885Z,1018.54
2019-01-18T05:25:48.673Z,1018.59
2019-01-18T05:26:48.654Z,1018.62
2019-01-18T05:27:48.663Z,1018.61
2019-01-18T05:28:48.752Z,1018.63
2019-01-18T05:29:48.601Z,1018.68
2019-01-18T05:30:48.927Z,1018.73
2019-01-18T05:31:48.762Z,1018.7
2019-01-18T05:32:48.999Z,1018.72
2019-01-18T05:33:48.957Z,1018.7
2019-01-18T05:34:49.141Z,1018.72
2019-01-18T05:35:48.688Z,1018.74
2019-01-18T05:36:48.606Z,1018.81
2019-01-18T05:37:48.841Z,1018.77
2019-01-18T05:38:49.232Z,1018.78
2019-01-18T05:39:48.657Z,1018.77
2019-01-18T05:40:48.648Z,1018.78
2019-01-18T05:41:48.580Z,1018.81
2019-01-18T05:42:48.588Z,1018.78
2019-01-18T05:43:48.620Z,1018.8
2019-01-18T05:44:48.658Z,1018.81
2019-01-18T05:45:49.058Z,1018.81
2019-01-18T05:46:48.632Z,1018.86
2019-01-18T05:47:48.692Z,1018.87
2019-01-18T05:48:48.615Z,1018.89
2019-01-18T05:49:48.600Z,1018.9
2019-01-18T05:50:48.368Z,1018.91
2019-01-18T05:51:48.629Z,1018.91
2019-01-18T05:52:48.953Z,1018.93
2019-01-18T05:53:48.720Z,1018.91
2019-01-18T05:54:48.614Z,1018.94
2019-01-18T05:55:48.586Z,1018.92
2019-01-18T05:56:48.614Z,1018.94
2019-01-18T05:57:48.624Z,1018.96
2019-01-18T05:58:48.575Z,1018.95
2019-01-18T05:59:48.646Z,1018.97
2019-01-18T06:00:55.632Z,1018.97
2019-01-18T06:01:48.651Z,1019
2019-01-18T06:02:48.747Z,1018.99
2019-01-18T06:03:56.132Z,1019.01
2019-01-18T06:04:48.829Z,1018.99
2019-01-18T06:05:48.660Z,1019.01
2019-01-18T06:06:48.664Z,1019.01
2019-01-18T06:07:48.898Z,1019.02
2019-01-18T06:08:48.576Z,1019.05
2019-01-18T06:09:48.520Z,1019.09
2019-01-18T06:10:48.542Z,1019.15
2019-01-18T06:11:48.547Z,1019.08
2019-01-18T06:12:55.224Z,1019.14
2019-01-18T06:13:50.359Z,1019.14
2019-01-18T06:14:48.595Z,1019.12
2019-01-18T06:15:48.648Z,1019.15
2019-01-18T06:16:48.860Z,1019.12
2019-01-18T06:17:48.508Z,1019.13
2019-01-18T06:18:48.508Z,1019.16
2019-01-18T06:19:48.829Z,1019.15
2019-01-18T06:20:48.799Z,1019.16
2019-01-18T06:21:48.853Z,1019.16
2019-01-18T06:22:48.761Z,1019.19
2019-01-18T06:23:48.932Z,1019.14
2019-01-18T06:24:48.555Z,1019.15
2019-01-18T06:25:49.429Z,1019.17
2019-01-18T06:26:48.842Z,1019.2
2019-01-18T06:27:48.569Z,1019.18
2019-01-18T06:28:49.335Z,1019.21
2019-01-18T06:29:48.663Z,1019.23
2019-01-18T06:30:48.816Z,1019.26
2019-01-18T06:31:48.601Z,1019.24
2019-01-18T06:32:48.580Z,1019.27
2019-01-18T06:34:08.735Z,1019.31
2019-01-18T06:34:48.540Z,1019.35
2019-01-18T06:35:48.758Z,1019.34
2019-01-18T06:36:48.625Z,1019.37
2019-01-18T06:37:49.400Z,1019.37
2019-01-18T06:38:48.486Z,1019.37
2019-01-18T06:39:48.880Z,1019.4
2019-01-18T06:40:48.725Z,1019.41
2019-01-18T06:41:49.456Z,1019.37
2019-01-18T06:42:48.588Z,1019.36
2019-01-18T06:43:48.652Z,1019.35
2019-01-18T06:44:48.553Z,1019.34
2019-01-18T06:45:48.319Z,1019.39
2019-01-18T06:46:49.047Z,1019.37
2019-01-18T06:47:48.508Z,1019.38
2019-01-18T06:48:48.531Z,1019.38
2019-01-18T06:49:48.609Z,1019.42
2019-01-18T06:50:48.629Z,1019.44
2019-01-18T06:51:48.762Z,1019.46
2019-01-18T06:52:48.803Z,1019.43
2019-01-18T06:53:49.515Z,1019.5
2019-01-18T06:54:48.777Z,1019.52
2019-01-18T06:55:48.554Z,1019.5
2019-01-18T06:57:08.044Z,1019.54
2019-01-18T06:57:48.730Z,1019.55
2019-01-18T06:58:48.731Z,1019.57
2019-01-18T06:59:48.480Z,1019.56
2019-01-18T07:00:49.274Z,1019.59
2019-01-18T07:01:50.325Z,1019.57
2019-01-18T07:02:49.035Z,1019.59
2019-01-18T07:03:48.760Z,1019.61
2019-01-18T07:04:48.526Z,1019.58
2019-01-18T07:05:49.215Z,1019.66
2019-01-18T07:06:48.665Z,1019.66
2019-01-18T07:07:49.198Z,1019.68
2019-01-18T07:08:48.451Z,1019.7
2019-01-18T07:09:48.462Z,1019.68
2019-01-18T07:10:48.807Z,1019.71
2019-01-18T07:11:48.517Z,1019.72
2019-01-18T07:12:48.561Z,1019.72
2019-01-18T07:13:50.285Z,1019.73
2019-01-18T07:14:48.649Z,1019.75
2019-01-18T07:15:48.444Z,1019.78
2019-01-18T07:16:48.581Z,1019.81
2019-01-18T07:17:48.614Z,1019.82
2019-01-18T07:18:48.444Z,1019.83
2019-01-18T07:19:48.974Z,1019.82
2019-01-18T07:20:48.508Z,1019.87
2019-01-18T07:21:48.702Z,1019.88
2019-01-18T07:22:48.504Z,1019.91
2019-01-18T07:23:48.456Z,1019.89
2019-01-18T07:24:48.482Z,1019.9
2019-01-18T07:25:48.648Z,1019.92
2019-01-18T07:26:48.422Z,1019.91
2019-01-18T07:27:48.434Z,1019.92
2019-01-18T07:28:48.544Z,1019.91
2019-01-18T07:29:48.623Z,1019.92
2019-01-18T07:30:48.476Z,1019.92
2019-01-18T07:31:48.440Z,1019.94
2019-01-18T07:32:49.454Z,1019.95
2019-01-18T07:33:48.423Z,1019.99
2019-01-18T07:34:48.644Z,1020.01
2019-01-18T07:35:48.444Z,1020.01
2019-01-18T07:36:48.447Z,1020.05
2019-01-18T07:37:48.450Z,1020.05
2019-01-18T07:38:48.382Z,1020.06
2019-01-18T07:39:48.465Z,1020.04
2019-01-18T07:40:48.532Z,1020.08
2019-01-18T07:41:48.438Z,1020.07
2019-01-18T07:42:48.457Z,1020.11
2019-01-18T07:43:48.580Z,1020.1
2019-01-18T07:45:05.617Z,1020.12
2019-01-18T07:45:48.537Z,1020.11
2019-01-18T07:46:47.961Z,1020.13
2019-01-18T07:47:48.611Z,1020.18
2019-01-18T07:48:48.548Z,1020.19
2019-01-18T07:49:48.666Z,1020.22
2019-01-18T07:50:48.367Z,1020.25
2019-01-18T07:52:00.918Z,1020.29
2019-01-18T07:52:48.562Z,1020.34
2019-01-18T07:53:48.759Z,1020.37
2019-01-18T07:54:48.415Z,1020.36
2019-01-18T07:55:48.426Z,1020.42
2019-01-18T07:56:48.468Z,1020.43
2019-01-18T07:57:48.856Z,1020.49
2019-01-18T07:58:48.789Z,1020.47
2019-01-18T07:59:48.766Z,1020.48
2019-01-18T08:00:48.763Z,1020.47
2019-01-18T08:01:48.882Z,1020.49
2019-01-18T08:03:48.725Z,1020.54
2019-01-18T08:04:48.383Z,1020.52
2019-01-18T08:05:50.045Z,1020.54
2019-01-18T08:07:48.478Z,1020.53
2019-01-18T08:08:48.698Z,1020.55
2019-01-18T08:09:48.425Z,1020.53
2019-01-18T08:10:48.363Z,1020.51
2019-01-18T08:11:48.459Z,1020.54
2019-01-18T08:12:50.163Z,1020.51
2019-01-18T08:13:48.476Z,1020.51
2019-01-18T08:14:48.567Z,1020.54
2019-01-18T08:15:48.429Z,1020.55
2019-01-18T08:16:48.612Z,1020.56
2019-01-18T08:17:48.416Z,1020.57
2019-01-18T08:18:48.631Z,1020.6
2019-01-18T08:19:48.358Z,1020.64
2019-01-18T08:21:56.543Z,1020.66
2019-01-18T08:22:48.595Z,1020.69
2019-01-18T08:23:48.379Z,1020.71
2019-01-18T08:24:49.074Z,1020.7
2019-01-18T08:25:48.448Z,1020.72
2019-01-18T08:26:48.550Z,1020.69
2019-01-18T08:27:48.317Z,1020.73
2019-01-18T08:28:49.583Z,1020.71
2019-01-18T08:29:55.341Z,1020.72
2019-01-18T08:30:49.319Z,1020.72
2019-01-18T08:31:48.219Z,1020.76
2019-01-18T08:32:48.410Z,1020.74
2019-01-18T08:33:48.398Z,1020.8
2019-01-18T08:34:48.430Z,1020.83
2019-01-18T08:35:48.341Z,1020.83
2019-01-18T08:36:48.595Z,1020.85
2019-01-18T08:37:48.701Z,1020.85
2019-01-18T08:38:48.378Z,1020.86
2019-01-18T08:39:48.463Z,1020.86
2019-01-18T08:40:48.390Z,1020.88
2019-01-18T08:41:49.342Z,1020.88
2019-01-18T08:42:48.311Z,1020.9
2019-01-18T08:43:50.140Z,1020.92
2019-01-18T08:44:48.747Z,1020.93
2019-01-18T08:45:48.469Z,1020.97
2019-01-18T08:46:48.307Z,1020.97
2019-01-18T08:47:48.456Z,1020.99
2019-01-18T08:48:48.573Z,1020.98
2019-01-18T08:49:48.355Z,1021.02
2019-01-18T08:50:48.277Z,1021
2019-01-18T08:51:48.472Z,1021.02
2019-01-18T08:52:48.273Z,1021.04
2019-01-18T08:53:48.457Z,1021.04
2019-01-18T08:54:48.288Z,1021.04
2019-01-18T08:55:48.348Z,1021.09
2019-01-18T08:56:48.786Z,1021.08
2019-01-18T08:57:48.466Z,1021.07
2019-01-18T08:58:48.459Z,1021.1
2019-01-18T08:59:48.396Z,1021.08
2019-01-18T09:00:49.215Z,1021.09
2019-01-18T09:01:48.691Z,1021.11
2019-01-18T09:02:49.184Z,1021.07
2019-01-18T09:03:48.524Z,1021.07
2019-01-18T09:04:48.376Z,1021.06
2019-01-18T09:05:51.524Z,1021.11
2019-01-18T09:06:48.372Z,1021.06
2019-01-18T09:07:48.329Z,1021.1
2019-01-18T09:08:48.364Z,1021.09
2019-01-18T09:10:03.142Z,1021.09
2019-01-18T09:10:48.271Z,1021.09
2019-01-18T09:11:48.301Z,1021.11
2019-01-18T09:12:48.261Z,1021.13
2019-01-18T09:13:48.341Z,1021.09
2019-01-18T09:14:48.291Z,1021.13
2019-01-18T09:15:48.389Z,1021.15
2019-01-18T09:16:48.465Z,1021.14
2019-01-18T09:17:48.256Z,1021.12
2019-01-18T09:18:48.261Z,1021.16
2019-01-18T09:19:48.264Z,1021.18
2019-01-18T09:20:48.263Z,1021.17
2019-01-18T09:21:48.248Z,1021.19
2019-01-18T09:22:48.258Z,1021.21
2019-01-18T09:23:48.293Z,1021.21
2019-01-18T09:24:48.439Z,1021.25
2019-01-18T09:25:48.276Z,1021.27
2019-01-18T09:26:48.469Z,1021.29
2019-01-18T09:27:48.472Z,1021.29
2019-01-18T09:28:48.567Z,1021.3
2019-01-18T09:29:49.587Z,1021.29
2019-01-18T09:30:48.397Z,1021.34
2019-01-18T09:31:48.613Z,1021.34
2019-01-18T09:32:48.275Z,1021.35
2019-01-18T09:33:48.388Z,1021.38
2019-01-18T09:34:50.076Z,1021.4
2019-01-18T09:35:49.053Z,1021.4
2019-01-18T09:36:48.527Z,1021.41
2019-01-18T09:37:48.519Z,1021.41
2019-01-18T09:38:48.397Z,1021.4
2019-01-18T09:39:48.648Z,1021.47
2019-01-18T09:40:48.273Z,1021.39
2019-01-18T09:41:48.663Z,1021.4
2019-01-18T09:42:48.498Z,1021.44
2019-01-18T09:43:48.662Z,1021.42
2019-01-18T09:44:48.509Z,1021.4
2019-01-18T09:45:48.319Z,1021.43
2019-01-18T09:46:48.475Z,1021.44
2019-01-18T09:47:48.307Z,1021.45
2019-01-18T09:48:48.488Z,1021.46
2019-01-18T09:49:48.464Z,1021.45
2019-01-18T09:50:48.317Z,1021.44
2019-01-18T09:51:48.293Z,1021.43
2019-01-18T09:52:49.162Z,1021.48
2019-01-18T09:53:48.276Z,1021.47
2019-01-18T09:54:49.066Z,1021.45
2019-01-18T09:55:48.262Z,1021.44
2019-01-18T09:56:48.393Z,1021.42
2019-01-18T09:57:48.483Z,1021.4
2019-01-18T09:58:48.457Z,1021.45
2019-01-18T09:59:48.413Z,1021.43
2019-01-18T10:00:48.274Z,1021.42
2019-01-18T10:01:50.052Z,1021.45
2019-01-18T10:02:48.223Z,1021.42
2019-01-18T10:04:12.363Z,1021.4
2019-01-18T10:04:48.561Z,1021.4
2019-01-18T10:05:48.278Z,1021.35
2019-01-18T10:06:48.522Z,1021.38
2019-01-18T10:07:48.555Z,1021.39
2019-01-18T10:08:48.636Z,1021.35
2019-01-18T10:09:48.335Z,1021.34
2019-01-18T10:10:48.232Z,1021.38
2019-01-18T10:11:48.196Z,1021.34
2019-01-18T10:12:49.507Z,1021.36
2019-01-18T10:13:48.587Z,1021.36
2019-01-18T10:14:48.157Z,1021.38
2019-01-18T10:15:48.254Z,1021.39
2019-01-18T10:16:48.279Z,1021.39
2019-01-18T10:17:48.394Z,1021.41
2019-01-18T10:18:49.883Z,1021.43
2019-01-18T10:19:48.300Z,1021.45
2019-01-18T10:20:48.411Z,1021.43
2019-01-18T10:21:49.987Z,1021.44
2019-01-18T10:22:48.235Z,1021.46
2019-01-18T10:23:48.254Z,1021.47
2019-01-18T10:25:05.195Z,1021.42
2019-01-18T10:25:48.196Z,1021.43
2019-01-18T10:26:48.227Z,1021.43
2019-01-18T10:27:48.388Z,1021.42
2019-01-18T10:28:49.149Z,1021.41
2019-01-18T10:29:48.578Z,1021.42
2019-01-18T10:31:03.216Z,1021.38
2019-01-18T10:31:56.356Z,1021.4
2019-01-18T10:32:48.252Z,1021.43
2019-01-18T10:33:48.357Z,1021.4
2019-01-18T10:34:48.532Z,1021.37
2019-01-18T10:36:11.957Z,1021.37
2019-01-18T10:37:12.177Z,1021.35
2019-01-18T10:38:13.525Z,1021.36
2019-01-18T10:39:11.712Z,1021.38
2019-01-18T10:40:13.540Z,1021.34
2019-01-18T10:41:11.995Z,1021.36
2019-01-18T10:42:12.527Z,1021.33
2019-01-18T10:43:12.028Z,1021.34
2019-01-18T10:44:11.761Z,1021.34
2019-01-18T10:45:13.626Z,1021.33
2019-01-18T10:46:12.700Z,1021.37
2019-01-18T10:47:11.763Z,1021.35
2019-01-18T10:48:12.500Z,1021.32
2019-01-18T10:49:23.559Z,1021.33
2019-01-18T10:50:11.802Z,1021.38
2019-01-18T10:51:11.718Z,1021.36
2019-01-18T10:52:12.244Z,1021.42
2019-01-18T10:53:12.202Z,1021.41
2019-01-18T10:54:12.093Z,1021.43
2019-01-18T10:55:11.893Z,1021.41
2019-01-18T10:56:12.169Z,1021.4
2019-01-18T10:57:11.850Z,1021.41
2019-01-18T10:58:12.258Z,1021.4
2019-01-18T10:59:12.124Z,1021.36
2019-01-18T11:00:11.720Z,1021.39
2019-01-18T11:01:11.831Z,1021.36
2019-01-18T11:02:11.770Z,1021.41
2019-01-18T11:03:12.047Z,1021.38
2019-01-18T11:04:11.798Z,1021.39
2019-01-18T11:05:12.589Z,1021.39
2019-01-18T11:06:11.736Z,1021.38
2019-01-18T11:07:11.732Z,1021.38
2019-01-18T11:08:17.637Z,1021.39
2019-01-18T11:09:11.731Z,1021.37
2019-01-18T11:10:11.780Z,1021.4
2019-01-18T11:11:12.010Z,1021.37
2019-01-18T11:12:13.506Z,1021.37
2019-01-18T11:13:11.697Z,1021.35
2019-01-18T11:14:12.227Z,1021.32
2019-01-18T11:15:12.334Z,1021.33
2019-01-18T11:16:11.936Z,1021.36
2019-01-18T11:17:11.734Z,1021.3
2019-01-18T11:18:12.611Z,1021.3
2019-01-18T11:19:11.797Z,1021.28
2019-01-18T11:20:12.064Z,1021.28
2019-01-18T11:21:12.274Z,1021.33
2019-01-18T11:22:12.088Z,1021.32
2019-01-18T11:23:11.795Z,1021.28
2019-01-18T11:24:11.782Z,1021.28
2019-01-18T11:25:11.699Z,1021.3
2019-01-18T11:26:11.651Z,1021.29
2019-01-18T11:27:11.677Z,1021.3
2019-01-18T11:28:12.101Z,1021.28
2019-01-18T11:29:12.023Z,1021.26
2019-01-18T11:30:19.362Z,1021.26
2019-01-18T11:31:11.619Z,1021.25
2019-01-18T11:32:14.111Z,1021.26
2019-01-18T11:33:11.652Z,1021.27
2019-01-18T11:34:11.954Z,1021.27
2019-01-18T11:35:11.676Z,1021.23
2019-01-18T11:36:13.483Z,1021.26
2019-01-18T11:37:12.196Z,1021.23
2019-01-18T11:38:12.302Z,1021.24
2019-01-18T11:39:11.644Z,1021.19
2019-01-18T11:40:11.595Z,1021.19
2019-01-18T11:41:12.297Z,1021.16
2019-01-18T11:42:12.863Z,1021.13
2019-01-18T11:43:11.721Z,1021.07
2019-01-18T11:44:11.777Z,1021.1
2019-01-18T11:45:11.776Z,1021.13
2019-01-18T11:46:11.637Z,1021.1
2019-01-18T11:47:12.172Z,1021.06
2019-01-18T11:48:11.752Z,1021.09
2019-01-18T11:49:11.717Z,1021.09
2019-01-18T11:50:12.063Z,1021.08
2019-01-18T11:51:12.007Z,1021.08
2019-01-18T11:52:11.807Z,1021.08
2019-01-18T11:53:11.638Z,1021.08
2019-01-18T11:54:20.181Z,1021.06
2019-01-18T11:55:11.640Z,1021.01
2019-01-18T11:56:12.004Z,1021.05
2019-01-18T11:57:12.036Z,1021.04
2019-01-18T11:58:12.119Z,1021.03
2019-01-18T11:59:42.144Z,1021.02
2019-01-18T12:00:40.612Z,1021.05
2019-01-18T12:01:40.615Z,1021.05
2019-01-18T12:02:42.109Z,1021.01
2019-01-18T12:03:40.180Z,1021
2019-01-18T12:04:40.332Z,1021.02
2019-01-18T12:05:40.432Z,1021.02
2019-01-18T12:06:47.324Z,1020.95
2019-01-18T12:07:49.467Z,1020.97
2019-01-18T12:08:42.108Z,1021
2019-01-18T12:09:40.537Z,1020.97
2019-01-18T12:10:40.053Z,1020.98
2019-01-18T12:11:40.485Z,1020.97
2019-01-18T12:12:40.529Z,1020.96
2019-01-18T12:13:40.458Z,1020.96
2019-01-18T12:14:40.276Z,1020.95
2019-01-18T12:15:40.497Z,1020.9
2019-01-18T12:16:40.378Z,1020.9